Time;durP1;ratioP1;P1;durP2;ratioP2;P2;SDS_P1;SDS_P2;PMS_P1;PMS_P2;Temp;Humidity;BMP_temperature;BMP_pressure;BME280_temperature;BME280_humidity;BME280_pressure;Samples;Min_cycle;Max_cycle;Signal;HPM_P1;HPM_P2
2021/04/02 00:00:55;;;;;;;8.35;4.50;;;;;;;7.00;89.41;92597.95;1820878;77;21566;-77
2021/04/02 00:03:25;;;;;;;6.37;4.20;;;;;;;6.93;89.79;92584.47;1820810;77;21644;-77
2021/04/02 00:05:53;;;;;;;5.33;3.90;;;;;;;6.82;90.09;92574.27;1764540;78;21100;-76
2021/04/02 00:08:21;;;;;;;5.58;3.12;;;;;;;6.67;90.67;92567.38;1785950;78;21124;-76
2021/04/02 00:10:52;;;;;;;6.05;4.70;;;;;;;6.56;91.62;92565.47;1820745;77;21079;-76
2021/04/02 00:13:23;;;;;;;5.75;4.20;;;;;;;6.46;92.27;92551.40;1820896;77;21538;-76
2021/04/02 00:15:53;;;;;;;6.60;4.65;;;;;;;6.39;91.78;92539.27;1820783;77;21804;-76
2021/04/02 00:18:22;;;;;;;6.70;3.92;;;;;;;6.29;91.27;92547.59;1752502;77;21590;-76
2021/04/02 00:20:52;;;;;;;5.47;3.10;;;;;;;6.24;91.61;92549.34;1799470;78;21566;-77
2021/04/02 00:23:19;;;;;;;4.80;3.33;;;;;;;6.18;92.17;92540.09;1820823;77;21482;-77
2021/04/02 00:25:46;;;;;;;3.80;3.05;;;;;;;6.13;92.31;92541.05;1820850;77;21131;-78
2021/04/02 00:28:14;;;;;;;3.42;2.87;;;;;;;6.09;92.04;92534.30;1819743;78;21794;-77
2021/04/02 00:30:51;;;;;;;3.27;2.92;;;;;;;6.01;92.01;92535.48;1746961;80;21119;-77
2021/04/02 00:33:23;;;;;;;4.22;2.58;;;;;;;5.88;92.32;92531.03;1811369;77;21139;-77
2021/04/02 00:35:50;;;;;;;3.05;2.75;;;;;;;5.80;92.66;92534.31;1820788;78;21131;-77
2021/04/02 00:38:18;;;;;;;3.92;2.42;;;;;;;5.79;92.88;92531.44;1789142;77;21067;-77
2021/04/02 00:40:58;;;;;;;13.68;5.55;;;;;;;5.84;93.09;92518.13;1761476;78;21800;-77
2021/04/02 00:43:32;;;;;;;5.03;4.03;;;;;;;5.87;92.54;92520.06;1815214;78;21072;-77
2021/04/02 00:45:59;;;;;;;3.20;2.85;;;;;;;5.72;92.18;92516.59;1746622;80;21594;-76
2021/04/02 00:48:27;;;;;;;3.80;2.47;;;;;;;5.63;92.71;92513.50;1812298;77;21032;-77
2021/04/02 00:51:04;;;;;;;6.08;3.20;;;;;;;5.62;92.93;92520.05;1820873;77;21028;-77
2021/04/02 00:53:36;;;;;;;3.02;2.65;;;;;;;5.60;92.43;92513.71;1820843;78;21590;-76
2021/04/02 00:56:05;;;;;;;1.92;1.80;;;;;;;5.52;92.23;92509.45;1820697;77;21104;-77
2021/04/02 00:58:35;;;;;;;5.00;3.00;;;;;;;5.42;92.31;92500.80;1820790;77;21557;-77
2021/04/02 01:01:04;;;;;;;4.70;2.70;;;;;;;5.32;92.50;92506.94;1787035;78;21554;-77
2021/04/02 01:03:32;;;;;;;3.15;1.90;;;;;;;5.23;92.42;92502.52;1820411;77;21159;-77
2021/04/02 01:06:04;;;;;;;4.22;2.30;;;;;;;5.13;92.53;92504.03;1820405;78;21755;-77
2021/04/02 01:08:35;;;;;;;2.72;2.00;;;;;;;5.08;92.93;92498.44;1787930;77;21111;-77
2021/04/02 01:11:12;;;;;;;5.47;2.75;;;;;;;5.08;92.93;92504.41;1764796;78;21581;-77
2021/04/02 01:13:49;;;;;;;5.90;2.65;;;;;;;5.07;92.73;92498.81;1820807;77;21647;-77
2021/04/02 01:16:25;;;;;;;4.15;2.95;;;;;;;4.99;92.77;92495.33;1820948;78;21068;-77
2021/04/02 01:19:09;;;;;;;;;;;;;;;4.96;93.15;92488.59;1823506;77;21375;-77
2021/04/02 01:22:01;;;;;;;10.65;5.72;;;;;;;4.94;92.70;92488.98;1820679;77;20228;-77
2021/04/02 01:25:06;;;;;;;4.00;1.90;;;;;;;4.79;91.96;92490.87;1820909;77;21541;-77
2021/04/02 01:28:05;;;;;;;2.52;1.52;;;;;;;4.54;91.88;92490.01;1813828;77;21131;-77
2021/04/02 01:30:36;;;;;;;1.82;1.72;;;;;;;4.37;92.29;92489.57;1820771;77;21553;-77
2021/04/02 01:33:07;;;;;;;1.60;1.50;;;;;;;4.31;92.56;92487.61;1820781;78;21403;-77
2021/04/02 01:35:38;;;;;;;1.95;1.47;;;;;;;4.23;92.89;92486.04;1820873;77;21514;-77
2021/04/02 01:38:20;;;;;;;1.67;1.57;;;;;;;4.07;93.70;92480.39;1820688;77;21060;-77
2021/04/02 01:40:50;;;;;;;2.37;1.87;;;;;;;4.07;93.70;92480.39;1820705;78;21035;-77
2021/04/02 01:43:22;;;;;;;3.80;1.30;;;;;;;4.02;94.12;92482.08;1820859;77;21206;-78
2021/04/02 01:45:50;;;;;;;1.55;1.40;;;;;;;4.03;94.64;92474.22;1820838;77;22070;-77
2021/04/02 01:48:18;;;;;;;4.85;2.08;;;;;;;4.01;94.73;92472.47;1771814;78;21072;-78
2021/04/02 01:50:46;;;;;;;2.30;2.00;;;;;;;4.02;94.96;92474.58;1778680;78;21036;-77
2021/04/02 01:53:16;;;;;;;12.07;4.40;;;;;;;4.04;94.95;92477.69;1820746;78;21060;-77
2021/04/02 01:55:45;;;;;;;10.75;3.85;;;;;;;4.05;94.63;92484.59;1762322;78;21617;-76
2021/04/02 01:58:13;;;;;;;9.00;3.67;;;;;;;4.01;93.60;92482.47;1814610;77;21509;-77
2021/04/02 02:00:47;;;;;;;6.58;2.85;;;;;;;3.94;93.04;92487.22;1786866;78;21162;-77
2021/04/02 02:03:16;;;;;;;3.17;2.08;;;;;;;3.88;92.88;92492.78;1787194;78;21610;-77
2021/04/02 02:05:47;;;;;;;3.67;1.80;;;;;;;3.86;93.10;92488.33;1820758;78;21490;-77
2021/04/02 02:08:16;;;;;;;5.55;2.58;;;;;;;3.89;93.48;92483.55;1818553;77;21471;-77
2021/04/02 02:10:46;;;;;;;7.67;2.90;;;;;;;3.93;93.51;92482.23;1820314;78;21493;-77
2021/04/02 02:13:13;;;;;;;8.05;3.83;;;;;;;3.95;93.27;92476.69;1747178;78;21203;-77
2021/04/02 02:15:43;;;;;;;1.80;1.62;;;;;;;3.97;92.87;92479.75;1802492;78;21150;-77
2021/04/02 02:18:14;;;;;;;1.85;1.75;;;;;;;3.93;92.66;92479.55;1779153;78;21114;-77
2021/04/02 02:20:43;;;;;;;3.80;1.50;;;;;;;3.90;92.83;92475.09;1771888;78;21126;-77
2021/04/02 02:23:12;;;;;;;2.72;1.80;;;;;;;3.88;93.05;92468.00;1811584;77;22161;-77
2021/04/02 02:25:39;;;;;;;2.17;1.52;;;;;;;3.87;92.99;92471.05;1746884;81;21638;-77
2021/04/02 02:28:08;;;;;;;10.68;3.12;;;;;;;3.87;92.95;92470.50;1746925;80;21494;-77
2021/04/02 02:30:37;;;;;;;4.40;2.12;;;;;;;3.89;92.69;92462.04;1798402;78;21467;-77
2021/04/02 02:33:09;;;;;;;9.55;4.47;;;;;;;3.88;92.53;92464.54;1819568;77;21036;-77
2021/04/02 02:35:40;;;;;;;9.38;4.58;;;;;;;3.86;92.74;92462.78;1762068;78;21203;-77
2021/04/02 02:38:08;;;;;;;7.53;3.10;;;;;;;3.87;92.71;92465.66;1820793;77;21483;-77
2021/04/02 02:40:37;;;;;;;3.22;2.62;;;;;;;3.85;92.58;92467.39;1786930;78;21072;-77
2021/04/02 02:43:05;;;;;;;4.83;3.08;;;;;;;3.77;92.38;92463.70;1787004;78;21078;-77
2021/04/02 02:45:33;;;;;;;8.38;3.55;;;;;;;3.68;92.53;92455.95;1820710;77;21160;-77
2021/04/02 02:48:02;;;;;;;6.55;3.67;;;;;;;3.67;92.62;92457.10;1790860;77;21360;-77
2021/04/02 02:50:35;;;;;;;4.00;3.10;;;;;;;3.64;92.52;92455.92;1760759;78;21581;-78
2021/04/02 02:53:06;;;;;;;6.08;2.87;;;;;;;3.54;92.52;92449.92;1820686;77;21171;-77
2021/04/02 02:55:38;;;;;;;4.03;2.65;;;;;;;3.49;92.78;92443.53;1787381;78;21032;-77
2021/04/02 02:58:07;;;;;;;3.87;2.75;;;;;;;3.48;93.06;92445.27;1813639;77;21131;-77
2021/04/02 03:00:41;;;;;;;4.58;2.92;;;;;;;3.51;93.21;92444.52;1813648;78;21087;-77
2021/04/02 03:03:15;;;;;;;4.50;2.37;;;;;;;3.55;93.24;92436.67;1820653;77;21087;-77
2021/04/02 03:05:48;;;;;;;;;;;;;;;3.60;93.04;92425.56;1823367;77;21048;-78
2021/04/02 03:08:22;;;;;;;10.58;4.65;;;;;;;3.64;92.82;92426.92;1817232;77;20309;-78
2021/04/02 03:10:50;;;;;;;9.03;5.65;;;;;;;3.65;92.80;92423.11;1720365;82;21147;-79
2021/04/02 03:13:18;;;;;;;6.28;3.62;;;;;;;3.66;92.54;92420.62;1746769;79;21447;-76
2021/04/02 03:15:46;;;;;;;6.47;3.77;;;;;;;3.66;92.43;92416.58;1794406;78;21068;-75
2021/04/02 03:18:17;;;;;;;3.95;2.87;;;;;;;3.67;92.21;92422.73;1820694;78;21056;-75
2021/04/02 03:20:46;;;;;;;2.45;2.25;;;;;;;3.64;91.98;92420.97;1805283;78;21063;-77
2021/04/02 03:23:15;;;;;;;7.65;2.60;;;;;;;3.58;92.17;92417.11;1746944;82;21099;-77
2021/04/02 03:25:46;;;;;;;2.52;2.00;;;;;;;3.52;92.16;92416.49;1782503;79;21366;-76
2021/04/02 03:28:16;;;;;;;3.27;2.10;;;;;;;3.45;92.14;92419.90;1748606;80;21644;-77
2021/04/02 03:30:46;;;;;;;2.90;2.52;;;;;;;3.36;92.35;92418.89;1775616;79;21057;-77
2021/04/02 03:33:19;;;;;;;3.00;2.47;;;;;;;3.32;92.65;92420.02;1739501;82;21551;-77
2021/04/02 03:35:48;;;;;;;2.65;2.22;;;;;;;3.33;93.12;92419.63;1813459;78;21465;-77
2021/04/02 03:38:17;;;;;;;2.35;2.15;;;;;;;3.40;93.13;92419.68;1810807;79;21428;-77
2021/04/02 03:40:45;;;;;;;14.95;7.97;;;;;;;3.46;93.02;92417.43;1738499;81;21620;-77
2021/04/02 03:43:14;;;;;;;3.33;2.60;;;;;;;3.49;93.01;92408.59;1740173;80;21172;-77
2021/04/02 03:45:45;;;;;;;3.75;3.00;;;;;;;3.54;93.06;92412.87;1749169;80;21167;-77
2021/04/02 03:48:13;;;;;;;6.58;4.78;;;;;;;3.58;93.15;92402.91;1765777;79;21128;-77
2021/04/02 03:50:42;;;;;;;5.58;3.70;;;;;;;3.64;92.97;92398.70;1774264;79;22167;-77
2021/04/02 03:53:25;;;;;;;7.12;3.87;;;;;;;3.65;92.37;92393.54;1739919;81;21111;-77
2021/04/02 03:55:53;;;;;;;5.58;2.45;;;;;;;3.59;92.00;92391.00;1695899;82;21076;-77
2021/04/02 03:58:21;;;;;;;6.10;3.37;;;;;;;3.50;92.06;92393.23;1737622;82;21119;-77
2021/04/02 04:01:13;;;;;;;5.50;2.70;;;;;;;3.47;92.46;92393.43;1730481;82;21036;-77
2021/04/02 04:03:42;;;;;;;3.00;2.50;;;;;;;3.49;92.48;92391.70;1720507;81;21372;-79
2021/04/02 04:06:15;;;;;;;4.08;2.55;;;;;;;3.45;92.32;92395.70;1713711;80;21183;-78
2021/04/02 04:08:44;;;;;;;4.58;2.90;;;;;;;3.41;92.57;92390.31;1809171;78;21622;-79
2021/04/02 04:11:13;;;;;;;3.95;3.33;;;;;;;3.45;92.99;92389.56;1749789;82;21118;-78
2021/04/02 04:13:41;;;;;;;2.30;2.10;;;;;;;3.52;93.07;92388.27;1778222;80;21136;-79
2021/04/02 04:16:11;;;;;;;5.17;2.37;;;;;;;3.52;92.74;92388.27;1750960;81;21194;-78
2021/04/02 04:18:40;;;;;;;4.80;1.98;;;;;;;3.46;92.73;92388.41;1715273;82;21684;-78
2021/04/02 04:21:08;;;;;;;2.30;1.72;;;;;;;3.40;92.70;92385.33;1759443;78;21483;-79
2021/04/02 04:23:37;;;;;;;2.80;2.30;;;;;;;3.36;92.77;92387.98;1807439;78;21042;-78
2021/04/02 04:26:05;;;;;;;2.30;2.10;;;;;;;3.33;93.14;92387.39;1748208;81;21108;-78
2021/04/02 04:28:32;;;;;;;5.53;2.87;;;;;;;3.33;93.48;92380.67;1802962;79;21426;-78
2021/04/02 04:31:02;;;;;;;4.42;2.10;;;;;;;3.38;93.90;92383.57;1787351;78;21171;-79
2021/04/02 04:33:29;;;;;;;2.62;2.17;;;;;;;3.47;93.82;92380.57;1789455;78;21070;-78
2021/04/02 04:35:59;;;;;;;3.15;1.92;;;;;;;3.52;93.73;92377.52;1814101;78;21384;-78
2021/04/02 04:38:26;;;;;;;13.62;6.40;;;;;;;3.54;93.38;92378.70;1771638;80;21508;-78
2021/04/02 04:40:54;;;;;;;15.05;6.85;;;;;;;3.52;93.00;92374.25;1740985;81;21364;-78
2021/04/02 04:43:22;;;;;;;10.72;4.30;;;;;;;3.53;92.89;92379.82;1762227;81;21591;-79
2021/04/02 04:45:49;;;;;;;6.80;4.25;;;;;;;3.55;92.97;92379.46;1771404;81;21088;-79
2021/04/02 04:48:16;;;;;;;4.20;3.50;;;;;;;3.59;93.06;92378.33;1763441;81;21121;-79
2021/04/02 04:50:44;;;;;;;5.08;3.70;;;;;;;3.63;92.84;92376.42;1739847;80;21144;-78
2021/04/02 04:53:21;;;;;;;4.58;2.42;;;;;;;3.64;92.66;92383.91;1771433;81;21655;-78
2021/04/02 04:55:48;;;;;;;4.33;2.90;;;;;;;3.66;92.59;92381.63;1743465;81;21065;-79
2021/04/02 04:58:16;;;;;;;4.53;3.37;;;;;;;3.67;92.38;92384.51;1759893;81;21065;-78
2021/04/02 05:00:45;;;;;;;7.28;4.30;;;;;;;3.64;92.32;92385.26;1771467;81;21610;-78
2021/04/02 05:03:16;;;;;;;6.12;4.90;;;;;;;3.67;92.53;92386.43;1765163;81;21069;-78
2021/04/02 05:05:43;;;;;;;5.78;3.65;;;;;;;3.64;92.44;92385.26;1739434;82;21272;-78
2021/04/02 05:08:15;;;;;;;4.92;3.15;;;;;;;3.64;92.58;92384.68;1783444;79;21080;-79
2021/04/02 05:10:44;;;;;;;4.22;2.95;;;;;;;3.60;92.41;92385.81;1801137;79;21551;-79
2021/04/02 05:13:12;;;;;;;3.92;2.90;;;;;;;3.53;92.67;92382.50;1802898;79;21125;-78
2021/04/02 05:15:40;;;;;;;6.00;3.50;;;;;;;3.51;93.01;92391.53;1810328;76;21147;-78
2021/04/02 05:18:09;;;;;;;6.30;3.70;;;;;;;3.53;93.45;92389.23;1732487;81;21201;-78
2021/04/02 05:20:42;;;;;;;3.37;2.60;;;;;;;3.57;93.44;92383.88;1690466;83;21567;-77
2021/04/02 05:23:11;;;;;;;3.08;2.50;;;;;;;3.60;93.21;92391.19;1770774;81;21151;-77
2021/04/02 05:25:40;;;;;;;3.58;3.10;;;;;;;3.60;93.23;92402.70;1768376;81;21143;-78
2021/04/02 05:28:08;;;;;;;5.37;3.10;;;;;;;3.62;93.30;92401.01;1770769;80;21068;-77
2021/04/02 05:30:38;;;;;;;3.70;3.25;;;;;;;3.68;93.52;92410.81;1805361;79;21073;-77
2021/04/02 05:33:05;;;;;;;5.33;3.30;;;;;;;3.75;93.61;92406.83;1845371;76;21045;-77
2021/04/02 05:35:33;;;;;;;4.47;2.72;;;;;;;3.82;93.43;92408.21;1779754;79;21129;-76
2021/04/02 05:38:00;;;;;;;10.72;7.15;;;;;;;3.82;93.10;92408.21;1779555;79;21187;-76
2021/04/02 05:40:28;;;;;;;14.33;10.60;;;;;;;3.83;93.17;92408.41;1774480;79;21052;-77
2021/04/02 05:43:13;;;;;;;9.73;5.10;;;;;;;3.80;92.88;92407.25;1784265;79;21708;-77
2021/04/02 05:45:40;;;;;;;7.43;4.77;;;;;;;3.74;92.60;92408.75;1788744;80;21175;-77
2021/04/02 05:48:09;;;;;;;3.72;3.35;;;;;;;3.62;92.61;92411.77;1782030;79;21313;-76
2021/04/02 05:50:37;;;;;;;4.30;3.60;;;;;;;3.58;93.11;92412.31;1782183;79;21060;-77
2021/04/02 05:53:08;;;;;;;5.70;2.95;;;;;;;3.56;93.33;92411.33;1782161;79;21123;-78
2021/04/02 05:55:42;;;;;;;4.67;3.20;;;;;;;3.56;93.51;92418.63;1782063;79;21185;-77
2021/04/02 05:58:12;;;;;;;3.00;2.72;;;;;;;3.59;93.99;92417.30;1781970;79;21112;-76
2021/04/02 06:00:40;;;;;;;4.72;3.08;;;;;;;3.69;94.22;92420.45;1782104;80;21476;-76
2021/04/02 06:03:08;;;;;;;4.22;2.70;;;;;;;3.71;93.97;92412.19;1781996;79;21498;-75
2021/04/02 06:05:36;;;;;;;6.00;4.17;;;;;;;3.72;93.95;92412.95;1782173;80;21140;-75
2021/04/02 06:08:05;;;;;;;6.87;3.52;;;;;;;3.71;94.07;92414.88;1781658;79;21633;-78
2021/04/02 06:10:34;;;;;;;9.43;6.35;;;;;;;3.74;94.36;92415.47;1780229;79;21165;-76
2021/04/02 06:13:02;;;;;;;15.13;9.18;;;;;;;3.80;94.34;92413.98;1779430;79;21102;-77
2021/04/02 06:15:33;;;;;;;16.42;8.58;;;;;;;3.81;94.15;92411.48;1778380;79;21692;-76
2021/04/02 06:18:11;;;;;;;6.10;4.22;;;;;;;3.80;93.83;92422.59;1779677;80;21122;-76
2021/04/02 06:20:46;;;;;;;8.78;4.35;;;;;;;3.70;93.69;92421.41;1842464;77;21133;-77
2021/04/02 06:23:20;;;;;;;8.40;6.12;;;;;;;3.62;94.18;92413.88;1789690;77;21131;-76
2021/04/02 06:25:59;;;;;;;69.10;41.10;;;;;;;3.68;94.88;92426.95;1779546;80;21519;-77
2021/04/02 06:28:29;;;;;;;126.47;68.17;;;;;;;3.73;95.02;92412.59;1779372;79;21493;-77
2021/04/02 06:31:10;;;;;;;25.20;13.65;;;;;;;3.78;95.05;92415.49;1777168;79;21057;-77
2021/04/02 06:33:42;;;;;;;11.28;5.70;;;;;;;3.85;95.13;92414.19;1771231;79;21366;-77
2021/04/02 06:36:18;;;;;;;6.42;3.87;;;;;;;3.89;94.97;92414.39;1771560;81;21175;-77
2021/04/02 06:38:51;;;;;;;4.65;3.50;;;;;;;3.94;94.81;92418.64;1794984;79;21065;-76
2021/04/02 06:41:18;;;;;;;4.17;3.45;;;;;;;3.96;94.85;92419.05;1790827;79;21170;-77
2021/04/02 06:43:49;;;;;;;4.05;3.65;;;;;;;3.94;94.68;92417.29;1804876;77;21507;-77
2021/04/02 06:46:28;;;;;;;4.67;3.98;;;;;;;3.87;94.88;92410.53;1802148;79;21426;-77
2021/04/02 06:48:58;;;;;;;5.42;4.03;;;;;;;3.84;95.33;92412.08;1784128;79;21499;-78
2021/04/02 06:51:26;;;;;;;5.05;4.05;;;;;;;3.86;95.76;92415.72;1771219;79;21096;-77
2021/04/02 06:53:55;;;;;;;4.42;4.00;;;;;;;3.92;95.96;92414.22;1767401;81;21132;-78
2021/04/02 06:56:22;;;;;;;4.60;3.72;;;;;;;3.98;95.85;92414.05;1771119;79;21562;-78
2021/04/02 06:58:50;;;;;;;5.65;4.75;;;;;;;4.01;95.71;92412.52;1771300;79;21602;-78
2021/04/02 07:01:17;;;;;;;5.12;4.22;;;;;;;4.00;95.68;92410.98;1770866;79;21065;-77
2021/04/02 07:03:45;;;;;;;4.53;4.05;;;;;;;4.00;95.93;92415.79;1771333;81;21065;-78
2021/04/02 07:06:14;;;;;;;7.10;4.50;;;;;;;4.01;96.31;92415.98;1771442;81;21582;-77
2021/04/02 07:08:43;;;;;;;6.65;4.42;;;;;;;4.03;96.59;92412.94;1755908;80;21131;-77
2021/04/02 07:11:10;;;;;;;8.45;6.65;;;;;;;4.13;96.79;92418.91;1784572;78;21731;-77
2021/04/02 07:13:47;;;;;;;11.90;8.95;;;;;;;4.20;96.69;92406.83;1781925;79;21512;-78
2021/04/02 07:16:19;;;;;;;15.68;10.32;;;;;;;4.32;96.29;92411.86;1782011;79;21081;-77
2021/04/02 07:18:46;;;;;;;8.98;6.03;;;;;;;4.32;96.29;92411.86;1781186;79;21159;-78
2021/04/02 07:21:14;;;;;;;7.15;4.80;;;;;;;4.38;95.85;92406.90;1782156;79;21565;-78
2021/04/02 07:23:41;;;;;;;5.12;3.90;;;;;;;4.38;95.61;92410.94;1782050;80;22471;-77
2021/04/02 07:26:12;;;;;;;7.95;4.97;;;;;;;4.35;95.72;92413.80;1781982;79;21526;-77
2021/04/02 07:28:45;;;;;;;4.75;3.90;;;;;;;4.38;96.19;92418.43;1780872;79;21117;-77
2021/04/02 07:31:12;;;;;;;3.80;3.50;;;;;;;4.44;96.16;92423.44;1779442;79;21154;-78
2021/04/02 07:33:42;;;;;;;5.83;3.95;;;;;;;4.45;95.91;92425.00;1779478;80;21419;-77
2021/04/02 07:36:12;;;;;;;21.35;12.47;;;;;;;4.46;95.99;92424.61;1779408;80;21363;-78
2021/04/02 07:38:44;;;;;;;29.48;17.50;;;;;;;4.50;96.27;92426.73;1772387;79;21152;-77
2021/04/02 07:41:16;;;;;;;32.33;17.75;;;;;;;4.63;95.92;92435.24;1717958;81;21132;-77
2021/04/02 07:43:54;;;;;;;27.15;15.72;;;;;;;4.63;95.92;92435.24;1771397;79;21148;-77
2021/04/02 07:46:28;;;;;;;19.17;13.60;;;;;;;4.69;95.89;92439.66;1770874;79;21658;-77
2021/04/02 07:49:09;;;;;;;20.70;16.70;;;;;;;4.71;95.69;92438.14;1770649;79;21507;-77
2021/04/02 07:51:42;;;;;;;24.07;15.35;;;;;;;4.74;95.68;92440.63;1771478;80;21104;-78
2021/04/02 07:54:34;;;;;;;26.35;16.07;;;;;;;4.76;95.63;92440.45;1850799;77;21054;-77
2021/04/02 07:57:12;;;;;;;18.40;12.33;;;;;;;4.81;95.77;92447.37;1782932;76;21144;-77
2021/04/02 07:59:44;;;;;;;20.62;16.40;;;;;;;4.92;94.95;92446.05;1773143;80;21590;-78
2021/04/02 08:02:17;;;;;;;19.55;14.35;;;;;;;4.88;95.16;92449.51;1771545;80;21859;-78
2021/04/02 08:04:59;;;;;;;18.55;12.28;;;;;;;4.88;95.16;92449.51;1771373;79;21192;-77
2021/04/02 08:07:40;;;;;;;13.18;10.32;;;;;;;4.93;95.17;92448.38;1771436;79;21516;-78
2021/04/02 08:10:14;;;;;;;15.90;13.20;;;;;;;4.97;95.12;92453.20;1771297;80;21836;-78
2021/04/02 08:12:42;;;;;;;22.45;14.45;;;;;;;4.99;95.10;92451.45;1771622;81;21116;-77
2021/04/02 08:15:11;;;;;;;20.12;14.33;;;;;;;5.02;95.12;92460.12;1771273;79;21802;-78
2021/04/02 08:17:39;;;;;;;20.75;14.10;;;;;;;5.01;95.14;92460.70;1771304;80;21206;-78
2021/04/02 08:20:13;;;;;;;15.05;10.50;;;;;;;5.05;95.25;92459.37;1771355;79;21072;-77
2021/04/02 08:22:41;;;;;;;18.90;12.75;;;;;;;5.14;95.22;92458.98;1742548;81;21133;-77
2021/04/02 08:25:13;;;;;;;21.15;15.43;;;;;;;5.21;95.00;92458.41;1770987;79;21171;-77
2021/04/02 08:27:41;;;;;;;18.75;13.85;;;;;;;5.24;94.69;92464.39;1771464;81;21510;-78
2021/04/02 08:30:12;;;;;;;23.45;14.03;;;;;;;5.24;94.62;92465.73;1771534;79;21100;-77
2021/04/02 08:32:48;;;;;;;21.60;14.05;;;;;;;5.25;94.72;92467.27;1771331;80;21073;-78
2021/04/02 08:35:16;;;;;;;21.05;14.38;;;;;;;5.26;94.57;92461.30;1771206;79;21053;-77
2021/04/02 08:38:05;;;;;;;20.35;14.38;;;;;;;5.26;94.56;92465.34;1752418;80;21100;-77
2021/04/02 08:40:35;;;;;;;50.50;34.73;;;;;;;5.28;94.76;92461.69;1788104;78;22173;-77
2021/04/02 08:43:07;;;;;;;52.98;39.35;;;;;;;5.35;94.98;92467.09;1782135;79;21605;-77
2021/04/02 08:45:36;;;;;;;51.00;32.08;;;;;;;5.40;94.78;92463.23;1782347;80;21084;-78
2021/04/02 08:48:04;;;;;;;42.90;29.77;;;;;;;5.43;94.75;92463.23;1782221;79;21101;-78
2021/04/02 08:50:31;;;;;;;32.38;23.98;;;;;;;5.45;94.59;92464.19;1782145;79;21571;-78
2021/04/02 08:53:06;;;;;;;34.05;24.57;;;;;;;5.49;94.55;92458.21;1782247;79;21360;-78
2021/04/02 08:55:34;;;;;;;31.55;20.10;;;;;;;5.48;94.40;92462.84;1782127;80;21147;-78
2021/04/02 08:58:05;;;;;;;22.93;17.60;;;;;;;5.48;94.43;92464.19;1782242;79;21115;-78
2021/04/02 09:00:32;;;;;;;23.77;18.40;;;;;;;5.50;94.59;92465.94;1777262;80;21056;-78
2021/04/02 09:03:00;;;;;;;20.10;14.23;;;;;;;5.53;94.74;92461.70;1777189;79;21167;-78
2021/04/02 09:05:27;;;;;;;16.52;14.05;;;;;;;5.62;95.10;92462.66;1777170;80;21184;-78
2021/04/02 09:07:58;;;;;;;21.30;15.00;;;;;;;5.73;95.05;92464.77;1777226;77;21065;-78
2021/04/02 09:10:25;;;;;;;27.25;16.35;;;;;;;5.80;95.09;92465.52;1849605;76;21057;-78
2021/04/02 09:12:54;;;;;;;20.82;13.32;;;;;;;5.90;94.97;92468.00;1771395;80;21120;-78
2021/04/02 09:15:30;;;;;;;13.08;9.60;;;;;;;5.96;94.68;92469.77;1813164;77;21156;-78
2021/04/02 09:18:19;;;;;;;11.68;8.60;;;;;;;6.00;94.37;92461.84;1797630;77;21177;-79
2021/04/02 09:20:47;;;;;;;10.70;8.48;;;;;;;6.03;94.23;92459.72;1779583;79;21507;-76
2021/04/02 09:23:15;;;;;;;10.93;7.50;;;;;;;6.06;93.86;92466.28;1772402;79;21505;-79
2021/04/02 09:25:45;;;;;;;12.33;7.75;;;;;;;6.07;93.38;92467.23;1755363;78;21076;-79
2021/04/02 09:28:12;;;;;;;11.12;8.18;;;;;;;6.00;92.62;92464.55;1787433;78;21561;-79
2021/04/02 09:30:41;;;;;;;18.17;10.72;;;;;;;5.95;92.93;92458.78;1850725;77;22478;-79
2021/04/02 09:33:09;;;;;;;18.52;15.35;;;;;;;5.96;93.25;92461.09;1795011;77;21100;-75
2021/04/02 09:35:36;;;;;;;10.95;9.80;;;;;;;5.98;93.44;92456.09;1779497;79;21503;-76
2021/04/02 09:38:05;;;;;;;8.73;7.83;;;;;;;6.00;93.51;92457.80;1716486;81;21166;-79
2021/04/02 09:40:32;;;;;;;7.92;6.95;;;;;;;6.00;93.45;92453.75;1726427;80;21111;-79
2021/04/02 09:43:00;;;;;;;8.58;5.47;;;;;;;6.00;93.26;92451.63;1718787;80;21386;-79
2021/04/02 09:45:28;;;;;;;9.53;6.70;;;;;;;6.00;93.35;92453.75;1841306;77;21132;-76
2021/04/02 09:47:55;;;;;;;10.80;7.30;;;;;;;6.02;93.18;92458.77;1804023;76;21032;-76
2021/04/02 09:50:22;;;;;;;11.73;9.30;;;;;;;6.02;93.12;92459.54;1779680;79;21586;-76
2021/04/02 09:52:50;;;;;;;18.75;12.78;;;;;;;6.00;93.12;92457.03;1777851;80;21089;-76
2021/04/02 09:55:17;;;;;;;24.85;16.10;;;;;;;6.00;93.21;92450.28;1740443;81;21370;-76
2021/04/02 09:57:46;;;;;;;28.00;20.52;;;;;;;6.02;93.09;92456.08;1770927;80;21132;-77
2021/04/02 10:00:16;;;;;;;27.60;18.60;;;;;;;6.05;93.23;92454.69;1770002;79;21183;-77
2021/04/02 10:02:44;;;;;;;11.88;9.95;;;;;;;6.05;93.15;92450.64;1771075;79;21555;-77
2021/04/02 10:05:13;;;;;;;11.30;8.05;;;;;;;6.07;92.97;92451.03;1771276;79;21144;-79
2021/04/02 10:07:40;;;;;;;9.00;8.10;;;;;;;6.08;92.90;92447.75;1771139;79;21461;-77
2021/04/02 10:10:09;;;;;;;9.53;7.00;;;;;;;6.11;92.94;92448.91;1771344;79;21532;-77
2021/04/02 10:12:36;;;;;;;8.10;6.67;;;;;;;6.14;92.76;92454.30;1771074;79;21176;-77
2021/04/02 10:15:06;;;;;;;8.05;6.45;;;;;;;6.15;92.47;92448.32;1771040;79;21139;-76
2021/04/02 10:17:33;;;;;;;12.23;8.63;;;;;;;6.17;92.26;92450.03;1771435;79;21152;-76
2021/04/02 10:20:03;;;;;;;19.95;14.13;;;;;;;6.16;91.90;92453.90;1771206;79;22301;-76
2021/04/02 10:22:31;;;;;;;13.18;10.58;;;;;;;6.17;92.19;92450.03;1771167;80;21168;-76
2021/04/02 10:24:59;;;;;;;17.37;10.25;;;;;;;6.16;92.51;92454.66;1771506;79;21049;-77
2021/04/02 10:27:27;;;;;;;9.28;7.67;;;;;;;6.20;92.87;92457.36;1771399;80;21077;-76
2021/04/02 10:29:54;;;;;;;8.73;7.78;;;;;;;6.26;92.89;92461.97;1770983;79;21121;-77
2021/04/02 10:32:21;;;;;;;10.40;9.25;;;;;;;6.28;92.51;92459.66;1771407;79;21363;-77
2021/04/02 10:34:49;;;;;;;3.15;2.40;;;;;;;6.31;92.43;92474.30;1771019;79;21104;-80
2021/04/02 10:37:16;;;;;;;2.55;2.35;;;;;;;6.25;88.03;92469.13;1771417;79;21068;-79
2021/04/02 10:39:44;;;;;;;2.02;1.82;;;;;;;6.04;86.59;92469.35;1771084;79;21578;-78
2021/04/02 10:42:12;;;;;;;2.50;1.72;;;;;;;5.91;87.64;92476.88;1753189;80;38499;-79
2021/04/02 10:44:39;;;;;;;1.52;1.42;;;;;;;5.78;87.83;92477.27;1787174;78;21193;-78
2021/04/02 10:47:08;;;;;;;1.10;1.10;;;;;;;5.67;88.07;92474.39;1781846;79;21182;-79
2021/04/02 10:49:36;;;;;;;1.30;1.20;;;;;;;5.57;88.03;92475.95;1782015;79;21068;-78
2021/04/02 10:52:05;;;;;;;0.80;0.72;;;;;;;5.50;88.50;92474.60;1781123;79;21202;-78
2021/04/02 10:54:34;;;;;;;1.62;1.00;;;;;;;5.49;88.61;92481.92;1781636;80;21111;-78
2021/04/02 10:57:02;;;;;;;2.33;1.57;;;;;;;5.47;88.60;92484.81;1782121;79;21510;-78
2021/04/02 10:59:29;;;;;;;1.10;1.00;;;;;;;5.46;88.85;92483.27;1781926;79;21087;-79
2021/04/02 11:01:57;;;;;;;1.07;1.05;;;;;;;5.43;88.38;92484.04;1782048;80;21479;-75
2021/04/02 11:04:24;;;;;;;0.90;0.90;;;;;;;5.41;88.51;92483.06;1781977;80;21100;-79
2021/04/02 11:06:52;;;;;;;0.82;0.82;;;;;;;5.42;88.24;92477.11;1782027;79;21111;-76
2021/04/02 11:09:20;;;;;;;1.62;1.00;;;;;;;5.43;88.49;92482.69;1781848;80;21655;-75
2021/04/02 11:11:48;;;;;;;2.25;1.22;;;;;;;5.47;88.66;92480.77;1780957;79;21089;-76
2021/04/02 11:14:16;;;;;;;2.35;1.62;;;;;;;5.51;89.31;92486.34;1778446;79;21157;-76
2021/04/02 11:16:45;;;;;;;0.80;0.80;;;;;;;5.51;89.31;92486.34;1779332;80;21078;-75
2021/04/02 11:19:12;;;;;;;0.93;0.93;;;;;;;5.58;89.11;92489.04;1779398;79;21190;-76
2021/04/02 11:21:40;;;;;;;1.40;1.30;;;;;;;5.60;89.02;92492.13;1779451;80;21276;-77
2021/04/02 11:24:08;;;;;;;3.08;1.87;;;;;;;5.63;87.78;92495.20;1779286;79;21173;-76
2021/04/02 11:26:35;;;;;;;1.62;1.52;;;;;;;5.52;87.84;92498.66;1776599;79;21065;-75
2021/04/02 11:29:03;;;;;;;1.85;1.75;;;;;;;5.42;87.76;92493.29;1771307;79;21109;-75
2021/04/02 11:31:32;;;;;;;1.80;1.70;;;;;;;5.35;88.29;92499.44;1771359;81;21148;-76
2021/04/02 11:33:59;;;;;;;2.33;2.20;;;;;;;5.13;88.50;92494.59;1771315;79;22440;-76
2021/04/02 11:36:26;;;;;;;2.42;2.20;;;;;;;5.13;88.50;92494.59;1771252;81;21174;-78
2021/04/02 11:38:54;;;;;;;2.65;2.42;;;;;;;5.08;89.26;92500.37;1771339;79;21584;-76
2021/04/02 11:41:22;;;;;;;1.75;1.65;;;;;;;5.05;89.28;92503.25;1771295;81;21176;-76
2021/04/02 11:43:50;;;;;;;2.30;2.10;;;;;;;5.06;89.33;92505.36;1771299;79;21143;-76
2021/04/02 11:46:18;;;;;;;2.33;2.12;;;;;;;5.02;89.09;92513.44;1771187;79;21640;-80
2021/04/02 11:48:46;;;;;;;2.22;2.02;;;;;;;4.91;88.85;92504.55;1771083;80;21159;-79
2021/04/02 11:51:13;;;;;;;2.50;2.30;;;;;;;4.83;89.06;92506.45;1770857;79;21176;-79
2021/04/02 11:53:41;;;;;;;2.00;1.90;;;;;;;4.75;89.24;92519.72;1770888;79;21578;-80